sensor_id;sensor_type;location;lat;lon;timestamp;pressure;altitude;pressure_sealevel;temperature;humidity
35704;BME280;21820;51.112;13.762;2022-09-25T00:00:05;99050.84;;;21.91;63.36
35704;BME280;21820;51.112;13.762;2022-09-25T00:02:31;99050.03;;;21.90;62.74
35704;BME280;21820;51.112;13.762;2022-09-25T00:04:56;99053.16;;;21.94;63.15
35704;BME280;21820;51.112;13.762;2022-09-25T00:07:21;99051.66;;;21.91;63.08
35704;BME280;21820;51.112;13.762;2022-09-25T00:09:46;99049.88;;;21.92;63.28
35704;BME280;21820;51.112;13.762;2022-09-25T00:12:11;99052.81;;;21.89;63.30
35704;BME280;21820;51.112;13.762;2022-09-25T00:14:37;99051.00;;;21.89;63.54
35704;BME280;21820;51.112;13.762;2022-09-25T00:17:02;99047.56;;;21.89;62.94
35704;BME280;21820;51.112;13.762;2022-09-25T00:19:27;99036.59;;;21.85;62.98
35704;BME280;21820;51.112;13.762;2022-09-25T00:22:11;99052.66;;;21.90;63.35
35704;BME280;21820;51.112;13.762;2022-09-25T00:24:36;99050.03;;;21.90;62.96
35704;BME280;21820;51.112;13.762;2022-09-25T00:27:01;99050.84;;;21.91;62.84
35704;BME280;21820;51.112;13.762;2022-09-25T00:29:27;99054.28;;;21.91;63.05
35704;BME280;21820;51.112;13.762;2022-09-25T00:31:53;99053.47;;;21.91;63.16
35704;BME280;21820;51.112;13.762;2022-09-25T00:34:19;99049.72;;;21.93;63.18
35704;BME280;21820;51.112;13.762;2022-09-25T00:36:44;99048.09;;;21.92;62.91
35704;BME280;21820;51.112;13.762;2022-09-25T00:39:09;99045.47;;;21.92;63.53
35704;BME280;21820;51.112;13.762;2022-09-25T00:41:34;99046.44;;;21.91;63.28
35704;BME280;21820;51.112;13.762;2022-09-25T00:44:00;99040.53;;;21.89;63.44
35704;BME280;21820;51.112;13.762;2022-09-25T00:46:27;99043.16;;;21.89;63.33
35704;BME280;21820;51.112;13.762;2022-09-25T00:51:39;99046.31;;;21.93;63.43
35704;BME280;21820;51.112;13.762;2022-09-25T00:54:07;99044.63;;;21.92;63.28
35704;BME280;21820;51.112;13.762;2022-09-25T00:56:36;99044.78;;;21.90;63.43
35704;BME280;21820;51.112;13.762;2022-09-25T00:59:02;99032.69;;;21.89;62.94
35704;BME280;21820;51.112;13.762;2022-09-25T01:01:28;99042.69;;;21.94;62.87
35704;BME280;21820;51.112;13.762;2022-09-25T01:03:53;99031.56;;;21.92;63.21
35704;BME280;21820;51.112;13.762;2022-09-25T01:06:20;99039.25;;;21.93;63.27
35704;BME280;21820;51.112;13.762;2022-09-25T01:08:46;99039.56;;;21.90;63.52
35704;BME280;21820;51.112;13.762;2022-09-25T01:11:11;99035.94;;;21.91;62.86
35704;BME280;21820;51.112;13.762;2022-09-25T01:13:36;99035.94;;;21.91;62.60
35704;BME280;21820;51.112;13.762;2022-09-25T01:16:11;99037.63;;;21.92;63.15
35704;BME280;21820;51.112;13.762;2022-09-25T01:21:55;99017.59;;;21.83;62.86
35704;BME280;21820;51.112;13.762;2022-09-25T01:24:10;99031.56;;;21.92;63.10
35704;BME280;21820;51.112;13.762;2022-09-25T01:29:27;99031.41;;;21.93;63.33
35704;BME280;21820;51.112;13.762;2022-09-25T01:32:06;99032.38;;;21.92;63.25
35704;BME280;21820;51.112;13.762;2022-09-25T01:34:39;99032.38;;;21.92;63.58
35704;BME280;21820;51.112;13.762;2022-09-25T01:37:16;99034.31;;;21.90;63.21
35704;BME280;21820;51.112;13.762;2022-09-25T01:39:45;99035.66;;;21.94;62.70
35704;BME280;21820;51.112;13.762;2022-09-25T01:42:17;99030.44;;;21.94;63.16
35704;BME280;21820;51.112;13.762;2022-09-25T01:44:53;99035.66;;;21.94;62.95
35704;BME280;21820;51.112;13.762;2022-09-25T01:47:23;99034.00;;;21.93;63.07
35704;BME280;21820;51.112;13.762;2022-09-25T01:49:52;99034.00;;;21.93;63.13
35704;BME280;21820;51.112;13.762;2022-09-25T01:52:21;99034.84;;;21.94;62.80
35704;BME280;21820;51.112;13.762;2022-09-25T01:54:51;99041.84;;;21.93;63.15
35704;BME280;21820;51.112;13.762;2022-09-25T01:57:19;99037.63;;;21.92;63.68
35704;BME280;21820;51.112;13.762;2022-09-25T01:59:48;99034.84;;;21.94;63.10
35704;BME280;21820;51.112;13.762;2022-09-25T02:02:18;99035.94;;;21.91;62.87
35704;BME280;21820;51.112;13.762;2022-09-25T02:04:47;99037.63;;;21.92;63.06
35704;BME280;21820;51.112;13.762;2022-09-25T02:07:15;99045.47;;;21.92;63.32
35704;BME280;21820;51.112;13.762;2022-09-25T02:09:46;99042.84;;;21.92;63.01
35704;BME280;21820;51.112;13.762;2022-09-25T02:12:18;99014.97;;;21.83;63.30
35704;BME280;21820;51.112;13.762;2022-09-25T02:14:48;99036.63;;;21.93;63.01
35704;BME280;21820;51.112;13.762;2022-09-25T02:17:17;99030.44;;;21.94;63.39
35704;BME280;21820;51.112;13.762;2022-09-25T02:20:05;99032.06;;;21.95;62.87
35704;BME280;21820;51.112;13.762;2022-09-25T02:22:50;99013.88;;;21.86;63.05
35704;BME280;21820;51.112;13.762;2022-09-25T02:25:24;99034.00;;;21.93;62.84
35704;BME280;21820;51.112;13.762;2022-09-25T02:27:53;99031.41;;;21.93;63.56
35704;BME280;21820;51.112;13.762;2022-09-25T02:30:19;99016.78;;;21.83;63.62
35704;BME280;21820;51.112;13.762;2022-09-25T02:32:44;99031.41;;;21.93;63.25
35704;BME280;21820;51.112;13.762;2022-09-25T02:35:09;99013.50;;;21.81;63.29
35704;BME280;21820;51.112;13.762;2022-09-25T02:37:34;99032.38;;;21.92;62.73
35704;BME280;21820;51.112;13.762;2022-09-25T02:40:00;99037.63;;;21.92;62.66
35704;BME280;21820;51.112;13.762;2022-09-25T02:42:44;99034.00;;;21.93;63.00
35704;BME280;21820;51.112;13.762;2022-09-25T02:45:28;99032.06;;;21.95;62.90
35704;BME280;21820;51.112;13.762;2022-09-25T02:53:32;99007.13;;;21.83;63.52
35704;BME280;21820;51.112;13.762;2022-09-25T02:56:03;99019.13;;;21.94;63.41
35704;BME280;21820;51.112;13.762;2022-09-25T02:58:37;99019.28;;;21.92;63.37
35704;BME280;21820;51.112;13.762;2022-09-25T03:01:04;99025.19;;;21.94;63.42
35704;BME280;21820;51.112;13.762;2022-09-25T03:03:30;99028.78;;;21.93;63.01
35704;BME280;21820;51.112;13.762;2022-09-25T03:05:56;99028.09;;;21.91;63.64
35704;BME280;21820;51.112;13.762;2022-09-25T03:08:22;99007.97;;;21.84;63.17
35704;BME280;21820;51.112;13.762;2022-09-25T03:11:11;99032.22;;;21.94;63.40
35704;BME280;21820;51.112;13.762;2022-09-25T03:13:36;99033.06;;;21.94;63.08
35704;BME280;21820;51.112;13.762;2022-09-25T03:18:30;99018.94;;;21.87;63.57
35704;BME280;21820;51.112;13.762;2022-09-25T03:20:55;99023.53;;;21.93;63.41
35704;BME280;21820;51.112;13.762;2022-09-25T03:23:21;99001.25;;;21.81;62.82
35704;BME280;21820;51.112;13.762;2022-09-25T03:25:46;99016.34;;;21.95;62.98
35704;BME280;21820;51.112;13.762;2022-09-25T03:28:12;98999.94;;;21.85;63.02
35704;BME280;21820;51.112;13.762;2022-09-25T03:30:37;99021.59;;;21.95;62.74
35704;BME280;21820;51.112;13.762;2022-09-25T03:33:04;99019.97;;;21.94;63.40
35704;BME280;21820;51.112;13.762;2022-09-25T03:35:30;99025.19;;;21.94;63.22
35704;BME280;21820;51.112;13.762;2022-09-25T03:37:55;99012.56;;;21.90;63.37
35704;BME280;21820;51.112;13.762;2022-09-25T03:40:20;99016.69;;;21.92;62.98
35704;BME280;21820;51.112;13.762;2022-09-25T03:42:45;99008.50;;;21.95;63.36
35704;BME280;21820;51.112;13.762;2022-09-25T03:45:11;99005.06;;;21.95;63.31
35704;BME280;21820;51.112;13.762;2022-09-25T03:47:36;99006.22;;;21.92;63.54
35704;BME280;21820;51.112;13.762;2022-09-25T03:50:02;99005.22;;;21.93;63.09
35704;BME280;21820;51.112;13.762;2022-09-25T03:52:27;99005.22;;;21.93;62.87
35704;BME280;21820;51.112;13.762;2022-09-25T03:54:52;99011.28;;;21.94;62.76
35704;BME280;21820;51.112;13.762;2022-09-25T03:57:18;99008.81;;;21.92;62.76
35704;BME280;21820;51.112;13.762;2022-09-25T03:59:43;99004.09;;;21.96;63.17
35704;BME280;21820;51.112;13.762;2022-09-25T04:02:08;99004.09;;;21.96;63.47
35704;BME280;21820;51.112;13.762;2022-09-25T04:04:34;99015.69;;;21.93;63.44
35704;BME280;21820;51.112;13.762;2022-09-25T04:07:01;98997.34;;;21.85;62.84
35704;BME280;21820;51.112;13.762;2022-09-25T04:09:27;99008.66;;;21.94;63.47
35704;BME280;21820;51.112;13.762;2022-09-25T04:11:52;99015.53;;;21.95;63.25
35704;BME280;21820;51.112;13.762;2022-09-25T04:14:19;99011.28;;;21.94;63.14
35704;BME280;21820;51.112;13.762;2022-09-25T04:16:44;99017.50;;;21.93;63.14
35704;BME280;21820;51.112;13.762;2022-09-25T04:19:10;99019.13;;;21.94;63.32
35704;BME280;21820;51.112;13.762;2022-09-25T04:21:36;99024.38;;;21.94;62.89
35704;BME280;21820;51.112;13.762;2022-09-25T04:24:01;99022.75;;;21.93;63.26
35704;BME280;21820;51.112;13.762;2022-09-25T04:26:45;99024.06;;;21.97;63.51
35704;BME280;21820;51.112;13.762;2022-09-25T04:29:11;99023.22;;;21.96;63.07
35704;BME280;21820;51.112;13.762;2022-09-25T04:31:38;99014.88;;;21.93;63.41
35704;BME280;21820;51.112;13.762;2022-09-25T04:34:03;99005.34;;;21.84;63.06
35704;BME280;21820;51.112;13.762;2022-09-25T04:36:28;99026.84;;;21.95;63.47
35704;BME280;21820;51.112;13.762;2022-09-25T04:38:53;99026.84;;;21.95;63.30
35704;BME280;21820;51.112;13.762;2022-09-25T04:41:19;99027.81;;;21.94;63.38
35704;BME280;21820;51.112;13.762;2022-09-25T04:43:44;99025.19;;;21.94;62.80
35704;BME280;21820;51.112;13.762;2022-09-25T04:46:10;99021.59;;;21.95;63.08
35704;BME280;21820;51.112;13.762;2022-09-25T04:48:35;99022.44;;;21.96;63.06
35704;BME280;21820;51.112;13.762;2022-09-25T04:51:01;99021.91;;;21.92;63.42
35704;BME280;21820;51.112;13.762;2022-09-25T04:53:27;99030.59;;;21.93;63.55
35704;BME280;21820;51.112;13.762;2022-09-25T04:55:53;99006.50;;;21.81;62.96
35704;BME280;21820;51.112;13.762;2022-09-25T04:58:19;99026.84;;;21.95;62.81
35704;BME280;21820;51.112;13.762;2022-09-25T05:00:44;99012.19;;;21.85;62.99
35704;BME280;21820;51.112;13.762;2022-09-25T05:03:10;99016.69;;;21.92;62.77
35704;BME280;21820;51.112;13.762;2022-09-25T05:05:35;99026.00;;;21.95;63.67
35704;BME280;21820;51.112;13.762;2022-09-25T05:08:00;99025.03;;;21.96;63.24
35704;BME280;21820;51.112;13.762;2022-09-25T05:10:27;99032.06;;;21.95;63.40
35704;BME280;21820;51.112;13.762;2022-09-25T05:12:54;99021.91;;;21.92;63.16
35704;BME280;21820;51.112;13.762;2022-09-25T05:15:20;99032.06;;;21.95;62.94
35704;BME280;21820;51.112;13.762;2022-09-25T05:17:45;99029.59;;;21.94;62.76
35704;BME280;21820;51.112;13.762;2022-09-25T05:20:10;99011.56;;;21.83;63.03
35704;BME280;21820;51.112;13.762;2022-09-25T05:22:36;99037.31;;;21.95;63.28
35704;BME280;21820;51.112;13.762;2022-09-25T05:25:01;99032.06;;;21.95;62.91
35704;BME280;21820;51.112;13.762;2022-09-25T05:27:26;99037.31;;;21.95;63.13
35704;BME280;21820;51.112;13.762;2022-09-25T05:29:51;99039.25;;;21.93;63.58
35704;BME280;21820;51.112;13.762;2022-09-25T05:32:17;99036.47;;;21.95;63.58
35704;BME280;21820;51.112;13.762;2022-09-25T05:34:43;99039.59;;;21.98;63.50
35704;BME280;21820;51.112;13.762;2022-09-25T05:37:08;99038.13;;;21.96;63.63
35704;BME280;21820;51.112;13.762;2022-09-25T05:39:33;99033.69;;;21.96;63.49
35704;BME280;21820;51.112;13.762;2022-09-25T05:41:58;99038.94;;;21.96;62.76
35704;BME280;21820;51.112;13.762;2022-09-25T05:44:24;99042.53;;;21.95;63.46
35704;BME280;21820;51.112;13.762;2022-09-25T05:46:52;99036.19;;;21.98;63.17
35704;BME280;21820;51.112;13.762;2022-09-25T05:49:20;99040.75;;;21.96;63.45
35704;BME280;21820;51.112;13.762;2022-09-25T05:51:45;99037.31;;;21.95;62.77
35704;BME280;21820;51.112;13.762;2022-09-25T05:54:11;99041.69;;;21.95;63.49
35704;BME280;21820;51.112;13.762;2022-09-25T05:56:37;99047.78;;;21.95;63.47
35704;BME280;21820;51.112;13.762;2022-09-25T05:59:02;99045.16;;;21.95;63.14
35704;BME280;21820;51.112;13.762;2022-09-25T06:01:27;99037.13;;;21.97;63.29
35704;BME280;21820;51.112;13.762;2022-09-25T06:03:52;99038.13;;;21.96;62.94
35704;BME280;21820;51.112;13.762;2022-09-25T06:06:18;99034.00;;;21.93;63.24
35704;BME280;21820;51.112;13.762;2022-09-25T06:08:43;99033.84;;;21.95;63.16
35704;BME280;21820;51.112;13.762;2022-09-25T06:11:08;99032.06;;;21.95;63.45
35704;BME280;21820;51.112;13.762;2022-09-25T06:13:35;99035.66;;;21.94;63.38
35704;BME280;21820;51.112;13.762;2022-09-25T06:16:01;99030.44;;;21.94;63.52
35704;BME280;21820;51.112;13.762;2022-09-25T06:18:26;99031.22;;;21.95;63.01
35704;BME280;21820;51.112;13.762;2022-09-25T06:20:57;99023.22;;;21.96;62.52
35704;BME280;21820;51.112;13.762;2022-09-25T06:23:23;99025.47;;;21.91;63.01
35704;BME280;21820;51.112;13.762;2022-09-25T06:25:48;99015.66;;;21.85;63.31
35704;BME280;21820;51.112;13.762;2022-09-25T06:28:13;99025.47;;;21.91;63.61
35704;BME280;21820;51.112;13.762;2022-09-25T06:30:38;99008.13;;;21.82;62.97
35704;BME280;21820;51.112;13.762;2022-09-25T06:33:05;99032.06;;;21.95;63.49
35704;BME280;21820;51.112;13.762;2022-09-25T06:35:31;99037.13;;;21.97;63.49
35704;BME280;21820;51.112;13.762;2022-09-25T06:37:57;99034.84;;;21.94;62.73
35704;BME280;21820;51.112;13.762;2022-09-25T06:40:23;99039.91;;;21.95;63.26
35704;BME280;21820;51.112;13.762;2022-09-25T06:42:53;99041.69;;;21.95;62.90
35704;BME280;21820;51.112;13.762;2022-09-25T06:45:18;99033.06;;;21.94;63.35
35704;BME280;21820;51.112;13.762;2022-09-25T06:47:43;99023.66;;;21.84;62.96
35704;BME280;21820;51.112;13.762;2022-09-25T06:50:09;99038.13;;;21.96;63.67
35704;BME280;21820;51.112;13.762;2022-09-25T06:52:42;99042.84;;;21.92;63.26
35704;BME280;21820;51.112;13.762;2022-09-25T06:55:07;99053.00;;;21.95;63.11
35704;BME280;21820;51.112;13.762;2022-09-25T06:57:32;99047.78;;;21.95;63.38
35704;BME280;21820;51.112;13.762;2022-09-25T07:00:01;99057.41;;;21.95;63.63
35704;BME280;21820;51.112;13.762;2022-09-25T07:02:26;99053.16;;;21.94;62.88
35704;BME280;21820;51.112;13.762;2022-09-25T07:05:10;99055.63;;;21.95;63.25
35704;BME280;21820;51.112;13.762;2022-09-25T07:07:36;99051.38;;;21.94;63.18
35704;BME280;21820;51.112;13.762;2022-09-25T07:10:01;99056.59;;;21.94;63.27
35704;BME280;21820;51.112;13.762;2022-09-25T07:12:27;99053.16;;;21.94;63.21
35704;BME280;21820;51.112;13.762;2022-09-25T07:14:52;99048.75;;;21.94;63.34
35704;BME280;21820;51.112;13.762;2022-09-25T07:17:17;99048.59;;;21.96;63.49
35704;BME280;21820;51.112;13.762;2022-09-25T07:19:42;99050.22;;;21.97;63.58
35704;BME280;21820;51.112;13.762;2022-09-25T07:22:08;99046.13;;;21.94;63.04
35704;BME280;21820;51.112;13.762;2022-09-25T07:24:35;99046.13;;;21.94;63.38
35704;BME280;21820;51.112;13.762;2022-09-25T07:27:00;99031.66;;;21.82;62.65
35704;BME280;21820;51.112;13.762;2022-09-25T07:29:25;99044.31;;;21.95;62.76
35704;BME280;21820;51.112;13.762;2022-09-25T07:31:51;99053.00;;;21.95;62.90
35704;BME280;21820;51.112;13.762;2022-09-25T07:34:16;99046.94;;;21.95;63.32
35704;BME280;21820;51.112;13.762;2022-09-25T07:36:41;99021.72;;;21.86;62.84
35704;BME280;21820;51.112;13.762;2022-09-25T07:39:07;99036.47;;;21.95;63.15
35704;BME280;21820;51.112;13.762;2022-09-25T07:41:32;99039.91;;;21.95;63.26
35704;BME280;21820;51.112;13.762;2022-09-25T07:43:58;99039.09;;;21.95;62.84
35704;BME280;21820;51.112;13.762;2022-09-25T07:46:27;99025.97;;;21.87;63.08
35704;BME280;21820;51.112;13.762;2022-09-25T07:48:52;99040.91;;;21.94;63.60
35704;BME280;21820;51.112;13.762;2022-09-25T07:51:18;99040.91;;;21.94;63.32
35704;BME280;21820;51.112;13.762;2022-09-25T07:53:46;99048.09;;;21.92;62.99
35704;BME280;21820;51.112;13.762;2022-09-25T07:56:11;99030.41;;;21.86;63.26
35704;BME280;21820;51.112;13.762;2022-09-25T07:58:36;99044.31;;;21.95;63.43
35704;BME280;21820;51.112;13.762;2022-09-25T08:01:03;99040.91;;;21.94;62.88
35704;BME280;21820;51.112;13.762;2022-09-25T08:03:29;99023.03;;;21.90;62.73
35704;BME280;21820;51.112;13.762;2022-09-25T08:05:57;99044.16;;;21.96;63.20
35704;BME280;21820;51.112;13.762;2022-09-25T08:08:23;99038.13;;;21.96;63.51
35704;BME280;21820;51.112;13.762;2022-09-25T08:10:48;99034.69;;;21.95;62.75
35704;BME280;21820;51.112;13.762;2022-09-25T08:13:13;99038.28;;;21.94;63.45
35704;BME280;21820;51.112;13.762;2022-09-25T08:15:41;99032.06;;;21.95;62.82
35704;BME280;21820;51.112;13.762;2022-09-25T08:18:07;99017.59;;;21.83;63.68
35704;BME280;21820;51.112;13.762;2022-09-25T08:20:33;99030.44;;;21.94;63.47
35704;BME280;21820;51.112;13.762;2022-09-25T08:23:00;99027.66;;;21.96;63.04
35704;BME280;21820;51.112;13.762;2022-09-25T08:25:25;99026.50;;;21.98;63.30
35704;BME280;21820;51.112;13.762;2022-09-25T08:27:50;99024.06;;;21.97;62.86
35704;BME280;21820;51.112;13.762;2022-09-25T08:30:15;99021.59;;;21.95;62.89
35704;BME280;21820;51.112;13.762;2022-09-25T08:32:41;99023.75;;;22.00;63.24
35704;BME280;21820;51.112;13.762;2022-09-25T08:35:07;99018.09;;;22.13;62.73
35704;BME280;21820;51.112;13.762;2022-09-25T08:37:32;99013.81;;;22.12;62.91
35704;BME280;21820;51.112;13.762;2022-09-25T08:39:58;98997.88;;;21.97;62.82
35704;BME280;21820;51.112;13.762;2022-09-25T08:42:28;99009.69;;;22.01;62.66
35704;BME280;21820;51.112;13.762;2022-09-25T08:44:56;99009.19;;;21.98;63.21
35704;BME280;21820;51.112;13.762;2022-09-25T08:47:45;99009.19;;;21.98;62.88
35704;BME280;21820;51.112;13.762;2022-09-25T08:50:30;99009.84;;;22.00;62.50
35704;BME280;21820;51.112;13.762;2022-09-25T08:53:04;98998.72;;;21.98;63.20
35704;BME280;21820;51.112;13.762;2022-09-25T08:55:32;99003.94;;;21.98;63.27
35704;BME280;21820;51.112;13.762;2022-09-25T08:58:24;99002.28;;;21.96;63.36
35704;BME280;21820;51.112;13.762;2022-09-25T09:00:53;99005.56;;;21.98;63.35
35704;BME280;21820;51.112;13.762;2022-09-25T09:03:20;99006.56;;;21.98;62.69
35704;BME280;21820;51.112;13.762;2022-09-25T09:05:55;99009.19;;;21.98;62.57
35704;BME280;21820;51.112;13.762;2022-09-25T09:08:22;99007.22;;;22.00;62.99
35704;BME280;21820;51.112;13.762;2022-09-25T09:11:00;99002.97;;;21.98;63.10
35704;BME280;21820;51.112;13.762;2022-09-25T09:13:38;99005.41;;;22.00;62.76
35704;BME280;21820;51.112;13.762;2022-09-25T09:16:07;99003.13;;;21.97;62.72
35704;BME280;21820;51.112;13.762;2022-09-25T09:18:37;99000.66;;;21.95;63.25
35704;BME280;21820;51.112;13.762;2022-09-25T09:21:12;98996.94;;;21.98;62.82
35704;BME280;21820;51.112;13.762;2022-09-25T09:26:04;99000.34;;;21.98;63.48
35704;BME280;21820;51.112;13.762;2022-09-25T09:31:04;98990.84;;;21.98;63.28
35704;BME280;21820;51.112;13.762;2022-09-25T09:41:13;98992.66;;;21.97;63.64
35704;BME280;21820;51.112;13.762;2022-09-25T09:46:34;98982.19;;;21.97;63.47
35704;BME280;21820;51.112;13.762;2022-09-25T09:51:52;98985.94;;;21.94;63.53
35704;BME280;21820;51.112;13.762;2022-09-25T09:54:34;98982.19;;;21.97;62.84
35704;BME280;21820;51.112;13.762;2022-09-25T09:57:09;98981.22;;;21.98;62.88
35704;BME280;21820;51.112;13.762;2022-09-25T09:59:51;98977.78;;;21.98;63.38
35704;BME280;21820;51.112;13.762;2022-09-25T10:04:43;98979.41;;;21.98;62.82
35704;BME280;21820;51.112;13.762;2022-09-25T10:07:14;98972.53;;;21.98;63.31
35704;BME280;21820;51.112;13.762;2022-09-25T10:09:40;98970.25;;;21.94;63.17
35704;BME280;21820;51.112;13.762;2022-09-25T10:12:11;98967.31;;;21.98;63.31
35704;BME280;21820;51.112;13.762;2022-09-25T10:14:40;98964.38;;;22.01;63.06
35704;BME280;21820;51.112;13.762;2022-09-25T10:17:07;98967.31;;;21.98;62.89
35704;BME280;21820;51.112;13.762;2022-09-25T10:19:50;98962.91;;;21.98;63.17
35704;BME280;21820;51.112;13.762;2022-09-25T10:22:16;98962.06;;;21.98;63.40
35704;BME280;21820;51.112;13.762;2022-09-25T10:24:48;98961.06;;;21.98;63.40
35704;BME280;21820;51.112;13.762;2022-09-25T10:27:33;98942.06;;;21.88;63.13
35704;BME280;21820;51.112;13.762;2022-09-25T10:30:33;98956.50;;;22.01;63.13
35704;BME280;21820;51.112;13.762;2022-09-25T10:35:38;98950.09;;;21.95;63.32
35704;BME280;21820;51.112;13.762;2022-09-25T10:38:15;98949.94;;;21.96;63.53
35704;BME280;21820;51.112;13.762;2022-09-25T10:40:42;98944.56;;;21.98;62.89
35704;BME280;21820;51.112;13.762;2022-09-25T10:45:38;98953.22;;;21.98;62.74
35704;BME280;21820;51.112;13.762;2022-09-25T10:48:23;98923.91;;;21.87;63.05
35704;BME280;21820;51.112;13.762;2022-09-25T10:51:08;98942.25;;;21.95;63.43
35704;BME280;21820;51.112;13.762;2022-09-25T10:53:34;98936.72;;;21.98;63.08
35704;BME280;21820;51.112;13.762;2022-09-25T10:56:03;98932.59;;;21.95;62.64
35704;BME280;21820;51.112;13.762;2022-09-25T11:01:10;98926.25;;;21.98;62.79
35704;BME280;21820;51.112;13.762;2022-09-25T11:03:44;98930.66;;;21.98;62.66
35704;BME280;21820;51.112;13.762;2022-09-25T11:08:39;98920.19;;;21.98;63.26
35704;BME280;21820;51.112;13.762;2022-09-25T11:11:06;98920.19;;;21.98;63.27
35704;BME280;21820;51.112;13.762;2022-09-25T11:13:44;98921.81;;;21.98;63.01
35704;BME280;21820;51.112;13.762;2022-09-25T11:16:10;98923.47;;;22.00;63.39
35704;BME280;21820;51.112;13.762;2022-09-25T11:18:37;98925.44;;;21.98;62.92
35704;BME280;21820;51.112;13.762;2022-09-25T11:21:04;98897.72;;;21.87;63.26
35704;BME280;21820;51.112;13.762;2022-09-25T11:23:34;98901.19;;;21.87;63.06
35704;BME280;21820;51.112;13.762;2022-09-25T11:26:05;98914.94;;;21.98;62.75
35704;BME280;21820;51.112;13.762;2022-09-25T11:28:34;98909.41;;;22.01;63.45
35704;BME280;21820;51.112;13.762;2022-09-25T11:33:38;98905.44;;;21.96;63.49
35704;BME280;21820;51.112;13.762;2022-09-25T11:36:16;98911.66;;;21.95;62.99
35704;BME280;21820;51.112;13.762;2022-09-25T11:38:46;98888.09;;;21.87;63.49
35704;BME280;21820;51.112;13.762;2022-09-25T11:46:47;98907.09;;;21.98;63.07
35704;BME280;21820;51.112;13.762;2022-09-25T11:57:09;98909.72;;;21.98;62.84
35704;BME280;21820;51.112;13.762;2022-09-25T12:04:58;98901.38;;;21.94;63.47
35704;BME280;21820;51.112;13.762;2022-09-25T12:07:37;98904.50;;;21.98;63.28
35704;BME280;21820;51.112;13.762;2022-09-25T12:18:25;98894.69;;;22.00;62.94
35704;BME280;21820;51.112;13.762;2022-09-25T12:23:55;98893.34;;;21.95;62.94
35704;BME280;21820;51.112;13.762;2022-09-25T12:26:42;98889.44;;;22.00;63.32
35704;BME280;21820;51.112;13.762;2022-09-25T12:29:25;98878.31;;;21.98;62.88
35704;BME280;21820;51.112;13.762;2022-09-25T12:32:03;98875.84;;;21.96;63.02
35704;BME280;21820;51.112;13.762;2022-09-25T12:39:40;98887.78;;;21.98;63.53
35704;BME280;21820;51.112;13.762;2022-09-25T12:42:14;98880.09;;;21.97;63.34
35704;BME280;21820;51.112;13.762;2022-09-25T12:47:42;98872.09;;;21.98;63.20
35704;BME280;21820;51.112;13.762;2022-09-25T12:50:17;98855.06;;;21.86;63.33
35704;BME280;21820;51.112;13.762;2022-09-25T12:53:19;98874.88;;;21.97;63.41
35704;BME280;21820;51.112;13.762;2022-09-25T12:55:37;98872.25;;;21.97;63.56
35704;BME280;21820;51.112;13.762;2022-09-25T12:58:17;98846.88;;;21.89;63.28
35704;BME280;21820;51.112;13.762;2022-09-25T13:00:46;98860.00;;;21.98;62.91
35704;BME280;21820;51.112;13.762;2022-09-25T13:05:50;98844.59;;;21.86;63.56
35704;BME280;21820;51.112;13.762;2022-09-25T13:08:18;98864.41;;;21.97;62.78
35704;BME280;21820;51.112;13.762;2022-09-25T13:13:36;98860.94;;;21.96;63.06
35704;BME280;21820;51.112;13.762;2022-09-25T13:16:04;98866.06;;;21.98;62.82
35704;BME280;21820;51.112;13.762;2022-09-25T13:18:29;98844.59;;;21.86;62.95
35704;BME280;21820;51.112;13.762;2022-09-25T13:20:58;98859.31;;;21.95;63.48
35704;BME280;21820;51.112;13.762;2022-09-25T13:23:38;98855.72;;;21.96;62.89
35704;BME280;21820;51.112;13.762;2022-09-25T13:26:09;98854.91;;;21.96;62.80
35704;BME280;21820;51.112;13.762;2022-09-25T13:28:36;98849.84;;;21.94;63.09
35704;BME280;21820;51.112;13.762;2022-09-25T13:33:27;98851.31;;;21.97;63.67
35704;BME280;21820;51.112;13.762;2022-09-25T13:36:06;98841.66;;;21.98;63.32
35704;BME280;21820;51.112;13.762;2022-09-25T13:38:31;98841.66;;;21.98;63.01
35704;BME280;21820;51.112;13.762;2022-09-25T13:41:21;98837.41;;;21.96;63.08
35704;BME280;21820;51.112;13.762;2022-09-25T13:43:46;98843.63;;;21.95;63.50
35704;BME280;21820;51.112;13.762;2022-09-25T13:48:38;98843.28;;;21.98;63.25
35704;BME280;21820;51.112;13.762;2022-09-25T13:54:01;98831.19;;;21.98;63.12
35704;BME280;21820;51.112;13.762;2022-09-25T13:56:43;98831.19;;;21.98;63.61
35704;BME280;21820;51.112;13.762;2022-09-25T14:06:33;98833.97;;;21.96;63.20
35704;BME280;21820;51.112;13.762;2022-09-25T14:09:05;98832.81;;;21.98;63.39
35704;BME280;21820;51.112;13.762;2022-09-25T14:11:32;98830.88;;;22.01;62.68
35704;BME280;21820;51.112;13.762;2022-09-25T14:14:00;98831.19;;;21.98;63.11
35704;BME280;21820;51.112;13.762;2022-09-25T14:16:36;98824.00;;;22.00;63.36
35704;BME280;21820;51.112;13.762;2022-09-25T14:19:04;98824.97;;;21.98;63.09
35704;BME280;21820;51.112;13.762;2022-09-25T14:21:32;98804.34;;;21.87;63.24
35704;BME280;21820;51.112;13.762;2022-09-25T14:24:13;98807.63;;;21.89;63.14
35704;BME280;21820;51.112;13.762;2022-09-25T14:26:43;98811.88;;;21.98;63.43
35704;BME280;21820;51.112;13.762;2022-09-25T14:29:15;98814.84;;;21.95;63.04
35704;BME280;21820;51.112;13.762;2022-09-25T14:31:49;98813.22;;;21.94;62.85
35704;BME280;21820;51.112;13.762;2022-09-25T14:47:26;98789.31;;;21.98;62.80
35704;BME280;21820;51.112;13.762;2022-09-25T14:49:52;98792.78;;;21.98;62.78
35704;BME280;21820;51.112;13.762;2022-09-25T14:52:19;98791.13;;;21.97;63.57
35704;BME280;21820;51.112;13.762;2022-09-25T14:54:48;98790.16;;;21.98;63.09
35704;BME280;21820;51.112;13.762;2022-09-25T14:57:15;98785.72;;;21.98;63.21
35704;BME280;21820;51.112;13.762;2022-09-25T14:59:43;98788.34;;;21.98;63.25